Terminal Aerodrome Forecast
Issued by NWS Albany, NY

Home | Current Version | Previous Version | Text Only | Print | Product List | Glossary On
Versions: 1 2 3 4 5 6 7 8 9 10 11 12 13 14 15 16 17 18 19 20 21 22 23 24 25
000
FTUS41 KALY 190526
TAFPOU
TAF
KPOU 190526Z 1906/2006 VRB03KT 6SM BR SCT015 BKN025
     FM190800 00000KT 4SM BR BCFG SCT004
     FM191000 00000KT 3/4SM BR BKN004
     FM191200 VRB03KT P6SM SCT020
     FM191600 25006KT P6SM FEW050
     FM192200 24006KT P6SM SCT250=

USA.gov is the U.S. government's official web portal to all federal, state and local government web resources and services.